sensor_id;sensor_type;location;lat;lon;timestamp;temperature;humidity
53776;DHT22;44276;49.534;6.378;2023-09-08T00:00:07;15.40;99.90
53776;DHT22;44276;49.534;6.378;2023-09-08T00:02:36;15.20;99.90
53776;DHT22;44276;49.534;6.378;2023-09-08T00:05:05;15.00;99.90
53776;DHT22;44276;49.534;6.378;2023-09-08T00:07:33;14.90;99.90
53776;DHT22;44276;49.534;6.378;2023-09-08T00:10:02;14.80;99.90
53776;DHT22;44276;49.534;6.378;2023-09-08T00:12:32;14.80;99.90
53776;DHT22;44276;49.534;6.378;2023-09-08T00:15:00;14.70;99.90
53776;DHT22;44276;49.534;6.378;2023-09-08T00:17:29;14.60;99.90
53776;DHT22;44276;49.534;6.378;2023-09-08T00:19:57;14.60;99.90
53776;DHT22;44276;49.534;6.378;2023-09-08T00:22:25;14.60;99.90
53776;DHT22;44276;49.534;6.378;2023-09-08T00:24:54;14.60;99.90
53776;DHT22;44276;49.534;6.378;2023-09-08T00:27:22;14.50;99.90
53776;DHT22;44276;49.534;6.378;2023-09-08T00:29:52;14.60;99.90
53776;DHT22;44276;49.534;6.378;2023-09-08T00:32:20;14.60;99.90
53776;DHT22;44276;49.534;6.378;2023-09-08T00:34:49;14.70;99.90
53776;DHT22;44276;49.534;6.378;2023-09-08T00:37:17;14.70;99.90
53776;DHT22;44276;49.534;6.378;2023-09-08T00:39:46;14.70;99.90
53776;DHT22;44276;49.534;6.378;2023-09-08T00:42:14;14.60;99.90
53776;DHT22;44276;49.534;6.378;2023-09-08T00:44:42;14.50;99.90
53776;DHT22;44276;49.534;6.378;2023-09-08T00:47:12;14.60;99.90
53776;DHT22;44276;49.534;6.378;2023-09-08T00:49:41;14.60;99.90
53776;DHT22;44276;49.534;6.378;2023-09-08T00:52:09;14.60;99.90
53776;DHT22;44276;49.534;6.378;2023-09-08T00:54:38;14.60;99.90
53776;DHT22;44276;49.534;6.378;2023-09-08T00:57:06;14.70;99.90
53776;DHT22;44276;49.534;6.378;2023-09-08T00:59:35;14.70;99.90
53776;DHT22;44276;49.534;6.378;2023-09-08T01:02:05;14.80;99.90
53776;DHT22;44276;49.534;6.378;2023-09-08T01:04:35;14.80;99.90
53776;DHT22;44276;49.534;6.378;2023-09-08T01:07:08;14.70;99.90
53776;DHT22;44276;49.534;6.378;2023-09-08T01:09:37;14.70;99.90
53776;DHT22;44276;49.534;6.378;2023-09-08T01:12:07;14.50;99.90
53776;DHT22;44276;49.534;6.378;2023-09-08T01:14:36;14.40;99.90
53776;DHT22;44276;49.534;6.378;2023-09-08T01:17:04;14.20;99.90
53776;DHT22;44276;49.534;6.378;2023-09-08T01:19:32;14.20;99.90
53776;DHT22;44276;49.534;6.378;2023-09-08T01:22:27;14.20;99.90
53776;DHT22;44276;49.534;6.378;2023-09-08T01:25:22;14.20;99.90
53776;DHT22;44276;49.534;6.378;2023-09-08T01:27:53;14.20;99.90
53776;DHT22;44276;49.534;6.378;2023-09-08T01:30:23;14.10;99.90
53776;DHT22;44276;49.534;6.378;2023-09-08T01:32:55;14.20;99.90
53776;DHT22;44276;49.534;6.378;2023-09-08T01:35:25;14.20;99.90
53776;DHT22;44276;49.534;6.378;2023-09-08T01:37:53;14.30;99.90
53776;DHT22;44276;49.534;6.378;2023-09-08T01:40:23;14.20;99.90
53776;DHT22;44276;49.534;6.378;2023-09-08T01:42:51;14.20;99.90
53776;DHT22;44276;49.534;6.378;2023-09-08T01:45:19;14.30;99.90
53776;DHT22;44276;49.534;6.378;2023-09-08T01:47:48;14.30;99.90
53776;DHT22;44276;49.534;6.378;2023-09-08T01:50:16;14.20;99.90
53776;DHT22;44276;49.534;6.378;2023-09-08T01:52:48;14.10;99.90
53776;DHT22;44276;49.534;6.378;2023-09-08T01:55:16;14.20;99.90
53776;DHT22;44276;49.534;6.378;2023-09-08T01:57:46;14.20;99.90
53776;DHT22;44276;49.534;6.378;2023-09-08T02:00:15;14.20;99.90
53776;DHT22;44276;49.534;6.378;2023-09-08T02:02:44;14.20;99.90
53776;DHT22;44276;49.534;6.378;2023-09-08T02:05:12;14.20;99.90
53776;DHT22;44276;49.534;6.378;2023-09-08T02:07:41;14.10;99.90
53776;DHT22;44276;49.534;6.378;2023-09-08T02:10:09;14.10;99.90
53776;DHT22;44276;49.534;6.378;2023-09-08T02:12:38;14.10;99.90
53776;DHT22;44276;49.534;6.378;2023-09-08T02:15:09;14.00;99.90
53776;DHT22;44276;49.534;6.378;2023-09-08T02:17:38;13.90;99.90
53776;DHT22;44276;49.534;6.378;2023-09-08T02:20:07;13.80;99.90
53776;DHT22;44276;49.534;6.378;2023-09-08T02:22:37;13.80;99.90
53776;DHT22;44276;49.534;6.378;2023-09-08T02:25:06;13.80;99.90
53776;DHT22;44276;49.534;6.378;2023-09-08T02:27:35;13.70;99.90
53776;DHT22;44276;49.534;6.378;2023-09-08T02:30:05;13.80;99.90
53776;DHT22;44276;49.534;6.378;2023-09-08T02:32:35;13.70;99.90
53776;DHT22;44276;49.534;6.378;2023-09-08T02:35:04;13.70;99.90
53776;DHT22;44276;49.534;6.378;2023-09-08T02:37:32;13.70;99.90
53776;DHT22;44276;49.534;6.378;2023-09-08T02:40:01;13.60;99.90
53776;DHT22;44276;49.534;6.378;2023-09-08T02:42:31;13.70;99.90
53776;DHT22;44276;49.534;6.378;2023-09-08T02:44:59;13.70;99.90
53776;DHT22;44276;49.534;6.378;2023-09-08T02:47:28;13.80;99.90
53776;DHT22;44276;49.534;6.378;2023-09-08T02:49:57;13.70;99.90
53776;DHT22;44276;49.534;6.378;2023-09-08T02:52:25;13.90;99.90
53776;DHT22;44276;49.534;6.378;2023-09-08T02:54:54;13.80;99.90
53776;DHT22;44276;49.534;6.378;2023-09-08T02:57:22;13.80;99.90
53776;DHT22;44276;49.534;6.378;2023-09-08T02:59:51;13.80;99.90
53776;DHT22;44276;49.534;6.378;2023-09-08T03:02:19;13.80;99.90
53776;DHT22;44276;49.534;6.378;2023-09-08T03:04:47;13.80;99.90
53776;DHT22;44276;49.534;6.378;2023-09-08T03:07:17;13.80;99.90
53776;DHT22;44276;49.534;6.378;2023-09-08T03:09:45;13.80;99.90
53776;DHT22;44276;49.534;6.378;2023-09-08T03:12:14;13.80;99.90
53776;DHT22;44276;49.534;6.378;2023-09-08T03:14:42;13.80;99.90
53776;DHT22;44276;49.534;6.378;2023-09-08T03:17:11;13.80;99.90
53776;DHT22;44276;49.534;6.378;2023-09-08T03:19:40;13.80;99.90
53776;DHT22;44276;49.534;6.378;2023-09-08T03:22:08;13.70;99.90
53776;DHT22;44276;49.534;6.378;2023-09-08T03:24:37;13.60;99.90
53776;DHT22;44276;49.534;6.378;2023-09-08T03:27:06;13.60;99.90
53776;DHT22;44276;49.534;6.378;2023-09-08T03:29:34;13.60;99.90
53776;DHT22;44276;49.534;6.378;2023-09-08T03:32:02;13.60;99.90
53776;DHT22;44276;49.534;6.378;2023-09-08T03:34:31;13.50;99.90
53776;DHT22;44276;49.534;6.378;2023-09-08T03:37:00;13.50;99.90
53776;DHT22;44276;49.534;6.378;2023-09-08T03:39:28;13.50;99.90
53776;DHT22;44276;49.534;6.378;2023-09-08T03:41:57;13.50;99.90
53776;DHT22;44276;49.534;6.378;2023-09-08T03:44:26;13.50;99.90
53776;DHT22;44276;49.534;6.378;2023-09-08T03:46:54;13.40;99.90
53776;DHT22;44276;49.534;6.378;2023-09-08T03:49:23;13.50;99.90
53776;DHT22;44276;49.534;6.378;2023-09-08T03:51:51;13.50;99.90
53776;DHT22;44276;49.534;6.378;2023-09-08T03:54:19;13.50;99.90
53776;DHT22;44276;49.534;6.378;2023-09-08T03:56:47;13.50;99.90
53776;DHT22;44276;49.534;6.378;2023-09-08T03:59:17;13.50;99.90
53776;DHT22;44276;49.534;6.378;2023-09-08T04:01:45;13.50;99.90
53776;DHT22;44276;49.534;6.378;2023-09-08T04:04:14;13.50;99.90
53776;DHT22;44276;49.534;6.378;2023-09-08T04:06:44;13.50;99.90
53776;DHT22;44276;49.534;6.378;2023-09-08T04:09:12;13.40;99.90
53776;DHT22;44276;49.534;6.378;2023-09-08T04:11:41;13.40;99.90
53776;DHT22;44276;49.534;6.378;2023-09-08T04:14:09;13.40;99.90
53776;DHT22;44276;49.534;6.378;2023-09-08T04:16:38;13.50;99.90
53776;DHT22;44276;49.534;6.378;2023-09-08T04:19:07;13.40;99.90
53776;DHT22;44276;49.534;6.378;2023-09-08T04:21:35;13.40;99.90
53776;DHT22;44276;49.534;6.378;2023-09-08T04:24:04;13.40;99.90
53776;DHT22;44276;49.534;6.378;2023-09-08T04:26:37;13.40;99.90
53776;DHT22;44276;49.534;6.378;2023-09-08T04:29:05;13.40;99.90
53776;DHT22;44276;49.534;6.378;2023-09-08T04:31:33;13.40;99.90
53776;DHT22;44276;49.534;6.378;2023-09-08T04:34:03;13.50;99.90
53776;DHT22;44276;49.534;6.378;2023-09-08T04:36:31;13.50;99.90
53776;DHT22;44276;49.534;6.378;2023-09-08T04:38:59;13.50;99.90
53776;DHT22;44276;49.534;6.378;2023-09-08T04:41:27;13.50;99.90
53776;DHT22;44276;49.534;6.378;2023-09-08T04:43:55;13.50;99.90
53776;DHT22;44276;49.534;6.378;2023-09-08T04:46:25;13.50;99.90
53776;DHT22;44276;49.534;6.378;2023-09-08T04:48:53;13.50;99.90
53776;DHT22;44276;49.534;6.378;2023-09-08T04:51:23;13.40;99.90
53776;DHT22;44276;49.534;6.378;2023-09-08T04:53:51;13.40;99.90
53776;DHT22;44276;49.534;6.378;2023-09-08T04:56:19;13.30;99.90
53776;DHT22;44276;49.534;6.378;2023-09-08T04:58:47;13.20;99.90
53776;DHT22;44276;49.534;6.378;2023-09-08T05:01:16;13.20;99.90
53776;DHT22;44276;49.534;6.378;2023-09-08T05:03:44;13.10;99.90
53776;DHT22;44276;49.534;6.378;2023-09-08T05:06:12;13.00;99.90
53776;DHT22;44276;49.534;6.378;2023-09-08T05:08:42;13.10;99.90
53776;DHT22;44276;49.534;6.378;2023-09-08T05:11:11;13.00;99.90
53776;DHT22;44276;49.534;6.378;2023-09-08T05:13:39;13.10;99.90
53776;DHT22;44276;49.534;6.378;2023-09-08T05:16:07;13.10;99.90
53776;DHT22;44276;49.534;6.378;2023-09-08T05:18:39;13.30;99.90
53776;DHT22;44276;49.534;6.378;2023-09-08T05:21:08;13.30;99.90
53776;DHT22;44276;49.534;6.378;2023-09-08T05:23:36;13.40;99.90
53776;DHT22;44276;49.534;6.378;2023-09-08T05:26:06;13.40;99.90
53776;DHT22;44276;49.534;6.378;2023-09-08T05:28:34;13.50;99.90
53776;DHT22;44276;49.534;6.378;2023-09-08T05:31:05;13.50;99.90
53776;DHT22;44276;49.534;6.378;2023-09-08T05:33:33;13.50;99.90
53776;DHT22;44276;49.534;6.378;2023-09-08T05:36:02;13.60;99.90
53776;DHT22;44276;49.534;6.378;2023-09-08T05:38:30;13.60;99.90
53776;DHT22;44276;49.534;6.378;2023-09-08T05:40:59;13.70;99.90
53776;DHT22;44276;49.534;6.378;2023-09-08T05:43:28;13.80;99.90
53776;DHT22;44276;49.534;6.378;2023-09-08T05:45:57;13.90;99.90
53776;DHT22;44276;49.534;6.378;2023-09-08T05:48:25;14.00;99.90
53776;DHT22;44276;49.534;6.378;2023-09-08T05:50:54;14.40;99.90
53776;DHT22;44276;49.534;6.378;2023-09-08T05:53:22;15.10;99.90
53776;DHT22;44276;49.534;6.378;2023-09-08T05:55:50;15.70;99.90
53776;DHT22;44276;49.534;6.378;2023-09-08T05:58:19;16.30;99.90
53776;DHT22;44276;49.534;6.378;2023-09-08T06:00:49;16.80;99.90
53776;DHT22;44276;49.534;6.378;2023-09-08T06:03:17;17.40;99.90
53776;DHT22;44276;49.534;6.378;2023-09-08T06:05:47;18.00;99.90
53776;DHT22;44276;49.534;6.378;2023-09-08T06:08:16;18.70;99.90
53776;DHT22;44276;49.534;6.378;2023-09-08T06:10:44;19.40;99.90
53776;DHT22;44276;49.534;6.378;2023-09-08T06:13:12;20.00;99.90
53776;DHT22;44276;49.534;6.378;2023-09-08T06:15:40;20.50;99.90
53776;DHT22;44276;49.534;6.378;2023-09-08T06:18:11;20.90;99.90
53776;DHT22;44276;49.534;6.378;2023-09-08T06:20:44;21.10;97.60
53776;DHT22;44276;49.534;6.378;2023-09-08T06:23:13;21.20;92.80
53776;DHT22;44276;49.534;6.378;2023-09-08T06:25:42;21.70;94.00
53776;DHT22;44276;49.534;6.378;2023-09-08T06:28:10;22.00;94.40
53776;DHT22;44276;49.534;6.378;2023-09-08T06:30:38;22.40;94.30
53776;DHT22;44276;49.534;6.378;2023-09-08T06:33:09;22.80;91.30
53776;DHT22;44276;49.534;6.378;2023-09-08T06:35:38;23.20;62.40
53776;DHT22;44276;49.534;6.378;2023-09-08T06:38:06;23.30;85.70
53776;DHT22;44276;49.534;6.378;2023-09-08T06:40:35;23.90;66.20
53776;DHT22;44276;49.534;6.378;2023-09-08T06:43:04;24.00;50.90
53776;DHT22;44276;49.534;6.378;2023-09-08T06:45:32;24.30;70.30
53776;DHT22;44276;49.534;6.378;2023-09-08T06:48:00;25.00;52.80
53776;DHT22;44276;49.534;6.378;2023-09-08T06:50:30;25.60;47.70
53776;DHT22;44276;49.534;6.378;2023-09-08T06:52:59;26.10;46.10
53776;DHT22;44276;49.534;6.378;2023-09-08T06:55:31;26.40;39.90
53776;DHT22;44276;49.534;6.378;2023-09-08T07:01:41;27.00;35.40
53776;DHT22;44276;49.534;6.378;2023-09-08T07:04:09;26.80;33.40
53776;DHT22;44276;49.534;6.378;2023-09-08T07:06:39;27.00;32.40
53776;DHT22;44276;49.534;6.378;2023-09-08T07:09:10;27.30;31.40
53776;DHT22;44276;49.534;6.378;2023-09-08T07:11:38;27.40;30.60
53776;DHT22;44276;49.534;6.378;2023-09-08T07:14:06;27.40;30.60
53776;DHT22;44276;49.534;6.378;2023-09-08T07:16:35;27.90;29.40
53776;DHT22;44276;49.534;6.378;2023-09-08T07:19:04;28.40;28.50
53776;DHT22;44276;49.534;6.378;2023-09-08T07:21:33;28.20;27.30
53776;DHT22;44276;49.534;6.378;2023-09-08T07:24:03;28.40;28.30
53776;DHT22;44276;49.534;6.378;2023-09-08T07:26:32;28.80;26.70
53776;DHT22;44276;49.534;6.378;2023-09-08T07:29:00;29.10;26.40
53776;DHT22;44276;49.534;6.378;2023-09-08T07:31:28;29.50;26.10
53776;DHT22;44276;49.534;6.378;2023-09-08T07:33:57;29.70;25.70
53776;DHT22;44276;49.534;6.378;2023-09-08T07:36:25;30.00;25.50
53776;DHT22;44276;49.534;6.378;2023-09-08T07:38:53;30.60;23.90
53776;DHT22;44276;49.534;6.378;2023-09-08T07:41:23;31.10;23.60
53776;DHT22;44276;49.534;6.378;2023-09-08T07:43:51;31.90;22.70
53776;DHT22;44276;49.534;6.378;2023-09-08T07:46:20;32.40;21.10
53776;DHT22;44276;49.534;6.378;2023-09-08T07:48:49;31.80;21.70
53776;DHT22;44276;49.534;6.378;2023-09-08T07:51:18;31.60;21.20
53776;DHT22;44276;49.534;6.378;2023-09-08T07:53:46;31.70;21.50
53776;DHT22;44276;49.534;6.378;2023-09-08T07:56:14;31.30;21.90
53776;DHT22;44276;49.534;6.378;2023-09-08T07:58:44;31.50;22.20
53776;DHT22;44276;49.534;6.378;2023-09-08T08:01:13;32.00;20.30
53776;DHT22;44276;49.534;6.378;2023-09-08T08:03:42;32.90;20.30
53776;DHT22;44276;49.534;6.378;2023-09-08T08:06:10;33.00;19.10
53776;DHT22;44276;49.534;6.378;2023-09-08T08:08:38;33.10;19.60
53776;DHT22;44276;49.534;6.378;2023-09-08T08:11:11;34.40;17.60
53776;DHT22;44276;49.534;6.378;2023-09-08T08:13:40;34.50;17.20
53776;DHT22;44276;49.534;6.378;2023-09-08T08:16:09;34.70;17.00
53776;DHT22;44276;49.534;6.378;2023-09-08T08:18:37;35.30;16.50
53776;DHT22;44276;49.534;6.378;2023-09-08T08:21:07;35.80;15.90
53776;DHT22;44276;49.534;6.378;2023-09-08T08:23:35;35.60;15.80
53776;DHT22;44276;49.534;6.378;2023-09-08T08:26:05;35.00;16.90
53776;DHT22;44276;49.534;6.378;2023-09-08T08:28:34;35.60;15.70
53776;DHT22;44276;49.534;6.378;2023-09-08T08:31:03;35.50;15.90
53776;DHT22;44276;49.534;6.378;2023-09-08T08:33:32;35.80;15.00
53776;DHT22;44276;49.534;6.378;2023-09-08T08:36:01;36.30;13.90
53776;DHT22;44276;49.534;6.378;2023-09-08T08:38:29;36.50;13.40
53776;DHT22;44276;49.534;6.378;2023-09-08T08:41:02;36.70;12.40
53776;DHT22;44276;49.534;6.378;2023-09-08T08:43:32;36.90;13.10
53776;DHT22;44276;49.534;6.378;2023-09-08T08:46:01;36.70;12.70
53776;DHT22;44276;49.534;6.378;2023-09-08T08:48:33;36.60;12.60
53776;DHT22;44276;49.534;6.378;2023-09-08T08:51:04;36.90;13.10
53776;DHT22;44276;49.534;6.378;2023-09-08T08:53:33;37.80;11.30
53776;DHT22;44276;49.534;6.378;2023-09-08T08:56:05;38.10;10.60
53776;DHT22;44276;49.534;6.378;2023-09-08T08:58:37;38.10;10.70
53776;DHT22;44276;49.534;6.378;2023-09-08T09:01:07;38.00;10.80
53776;DHT22;44276;49.534;6.378;2023-09-08T09:03:41;38.40;10.70
53776;DHT22;44276;49.534;6.378;2023-09-08T09:06:12;38.40;11.10
53776;DHT22;44276;49.534;6.378;2023-09-08T09:08:43;39.20;10.10
53776;DHT22;44276;49.534;6.378;2023-09-08T09:11:12;38.90;9.60
53776;DHT22;44276;49.534;6.378;2023-09-08T09:13:40;38.80;10.20
53776;DHT22;44276;49.534;6.378;2023-09-08T09:16:09;39.50;9.90
53776;DHT22;44276;49.534;6.378;2023-09-08T09:21:44;39.50;9.90
53776;DHT22;44276;49.534;6.378;2023-09-08T09:24:14;38.40;10.10
53776;DHT22;44276;49.534;6.378;2023-09-08T09:26:47;37.50;11.80
53776;DHT22;44276;49.534;6.378;2023-09-08T09:29:20;37.70;11.50
53776;DHT22;44276;49.534;6.378;2023-09-08T09:31:51;38.50;11.40
53776;DHT22;44276;49.534;6.378;2023-09-08T09:34:21;38.20;11.20
53776;DHT22;44276;49.534;6.378;2023-09-08T09:36:51;38.20;11.00
53776;DHT22;44276;49.534;6.378;2023-09-08T09:39:21;38.50;11.40
53776;DHT22;44276;49.534;6.378;2023-09-08T09:41:54;38.80;10.90
53776;DHT22;44276;49.534;6.378;2023-09-08T09:44:24;39.50;10.50
53776;DHT22;44276;49.534;6.378;2023-09-08T09:46:53;39.30;10.10
53776;DHT22;44276;49.534;6.378;2023-09-08T09:49:21;39.40;10.60
53776;DHT22;44276;49.534;6.378;2023-09-08T09:51:55;39.90;10.00
53776;DHT22;44276;49.534;6.378;2023-09-08T09:54:23;40.30;9.80
53776;DHT22;44276;49.534;6.378;2023-09-08T09:56:52;39.40;10.10
53776;DHT22;44276;49.534;6.378;2023-09-08T09:59:21;39.10;10.50
53776;DHT22;44276;49.534;6.378;2023-09-08T10:01:52;39.50;10.30
53776;DHT22;44276;49.534;6.378;2023-09-08T10:04:22;38.70;11.20
53776;DHT22;44276;49.534;6.378;2023-09-08T10:06:51;38.70;11.30
53776;DHT22;44276;49.534;6.378;2023-09-08T10:09:21;38.70;11.20
53776;DHT22;44276;49.534;6.378;2023-09-08T10:11:50;38.60;11.10
53776;DHT22;44276;49.534;6.378;2023-09-08T10:14:23;38.70;10.70
53776;DHT22;44276;49.534;6.378;2023-09-08T10:16:54;39.00;10.80
53776;DHT22;44276;49.534;6.378;2023-09-08T10:19:27;39.70;9.80
53776;DHT22;44276;49.534;6.378;2023-09-08T10:22:00;41.10;9.40
53776;DHT22;44276;49.534;6.378;2023-09-08T10:24:34;41.30;8.50
53776;DHT22;44276;49.534;6.378;2023-09-08T10:27:08;40.70;9.70
53776;DHT22;44276;49.534;6.378;2023-09-08T10:29:38;39.60;9.50
53776;DHT22;44276;49.534;6.378;2023-09-08T10:32:08;39.90;9.80
53776;DHT22;44276;49.534;6.378;2023-09-08T10:34:38;40.20;9.00
53776;DHT22;44276;49.534;6.378;2023-09-08T10:37:19;40.00;9.50
53776;DHT22;44276;49.534;6.378;2023-09-08T10:39:49;40.60;8.40
53776;DHT22;44276;49.534;6.378;2023-09-08T10:42:24;40.10;9.50
53776;DHT22;44276;49.534;6.378;2023-09-08T10:44:56;39.30;10.00
53776;DHT22;44276;49.534;6.378;2023-09-08T10:47:31;38.90;11.00
53776;DHT22;44276;49.534;6.378;2023-09-08T10:50:04;38.00;11.90
53776;DHT22;44276;49.534;6.378;2023-09-08T10:52:35;37.10;13.00
53776;DHT22;44276;49.534;6.378;2023-09-08T10:55:05;37.40;12.50
53776;DHT22;44276;49.534;6.378;2023-09-08T10:57:33;38.10;12.40
53776;DHT22;44276;49.534;6.378;2023-09-08T11:00:03;38.30;11.90
53776;DHT22;44276;49.534;6.378;2023-09-08T11:02:39;38.10;11.80
53776;DHT22;44276;49.534;6.378;2023-09-08T11:05:10;37.30;13.20
53776;DHT22;44276;49.534;6.378;2023-09-08T11:07:41;36.80;13.20
53776;DHT22;44276;49.534;6.378;2023-09-08T11:10:12;36.90;13.30
53776;DHT22;44276;49.534;6.378;2023-09-08T11:12:41;37.10;13.20
53776;DHT22;44276;49.534;6.378;2023-09-08T11:15:09;37.00;13.20
53776;DHT22;44276;49.534;6.378;2023-09-08T11:17:38;37.50;13.60
53776;DHT22;44276;49.534;6.378;2023-09-08T11:20:09;38.50;12.50
53776;DHT22;44276;49.534;6.378;2023-09-08T11:22:39;38.70;11.00
53776;DHT22;44276;49.534;6.378;2023-09-08T11:25:09;38.40;11.80
53776;DHT22;44276;49.534;6.378;2023-09-08T11:27:39;38.10;11.60
53776;DHT22;44276;49.534;6.378;2023-09-08T11:30:08;38.30;11.10
53776;DHT22;44276;49.534;6.378;2023-09-08T11:32:37;37.80;11.50
53776;DHT22;44276;49.534;6.378;2023-09-08T11:35:07;38.70;12.00
53776;DHT22;44276;49.534;6.378;2023-09-08T11:37:37;39.90;10.10
53776;DHT22;44276;49.534;6.378;2023-09-08T11:40:08;39.90;9.50
53776;DHT22;44276;49.534;6.378;2023-09-08T11:42:41;39.80;10.20
53776;DHT22;44276;49.534;6.378;2023-09-08T11:45:12;39.30;9.50
53776;DHT22;44276;49.534;6.378;2023-09-08T11:47:41;39.30;9.20
53776;DHT22;44276;49.534;6.378;2023-09-08T11:50:11;39.00;9.50
53776;DHT22;44276;49.534;6.378;2023-09-08T11:52:43;40.20;9.30
53776;DHT22;44276;49.534;6.378;2023-09-08T11:55:13;40.80;9.30
53776;DHT22;44276;49.534;6.378;2023-09-08T11:57:46;40.10;8.90
53776;DHT22;44276;49.534;6.378;2023-09-08T12:00:18;39.60;9.50
53776;DHT22;44276;49.534;6.378;2023-09-08T12:02:49;38.80;10.00
53776;DHT22;44276;49.534;6.378;2023-09-08T12:05:22;39.00;10.20
53776;DHT22;44276;49.534;6.378;2023-09-08T12:07:52;39.60;9.10
53776;DHT22;44276;49.534;6.378;2023-09-08T12:10:22;39.90;9.40
53776;DHT22;44276;49.534;6.378;2023-09-08T12:12:53;40.00;9.20
53776;DHT22;44276;49.534;6.378;2023-09-08T12:15:30;39.90;9.40
53776;DHT22;44276;49.534;6.378;2023-09-08T12:18:00;39.40;9.50
53776;DHT22;44276;49.534;6.378;2023-09-08T12:20:30;38.80;9.80
53776;DHT22;44276;49.534;6.378;2023-09-08T12:23:01;39.10;10.30
53776;DHT22;44276;49.534;6.378;2023-09-08T12:25:30;39.30;10.50
53776;DHT22;44276;49.534;6.378;2023-09-08T12:28:05;39.60;9.80
53776;DHT22;44276;49.534;6.378;2023-09-08T12:30:33;39.50;9.50
53776;DHT22;44276;49.534;6.378;2023-09-08T12:33:02;39.10;9.00
53776;DHT22;44276;49.534;6.378;2023-09-08T12:35:30;38.90;9.60
53776;DHT22;44276;49.534;6.378;2023-09-08T12:38:00;39.80;9.60
53776;DHT22;44276;49.534;6.378;2023-09-08T12:40:30;40.20;8.40
53776;DHT22;44276;49.534;6.378;2023-09-08T12:43:01;39.80;8.20
53776;DHT22;44276;49.534;6.378;2023-09-08T12:45:50;39.70;9.50
53776;DHT22;44276;49.534;6.378;2023-09-08T12:48:18;40.40;8.20
53776;DHT22;44276;49.534;6.378;2023-09-08T12:50:47;41.10;8.10
53776;DHT22;44276;49.534;6.378;2023-09-08T12:53:16;41.10;8.20
53776;DHT22;44276;49.534;6.378;2023-09-08T12:55:45;41.10;7.50
53776;DHT22;44276;49.534;6.378;2023-09-08T12:58:13;41.40;7.30
53776;DHT22;44276;49.534;6.378;2023-09-08T13:00:42;41.10;7.80
53776;DHT22;44276;49.534;6.378;2023-09-08T13:03:12;40.90;7.50
53776;DHT22;44276;49.534;6.378;2023-09-08T13:05:40;40.60;7.80
53776;DHT22;44276;49.534;6.378;2023-09-08T13:08:08;40.50;8.00
53776;DHT22;44276;49.534;6.378;2023-09-08T13:10:38;40.20;7.30
53776;DHT22;44276;49.534;6.378;2023-09-08T13:13:06;39.90;7.50
53776;DHT22;44276;49.534;6.378;2023-09-08T13:15:34;39.90;7.40
53776;DHT22;44276;49.534;6.378;2023-09-08T13:18:03;39.70;8.60
53776;DHT22;44276;49.534;6.378;2023-09-08T13:20:33;40.50;8.30
53776;DHT22;44276;49.534;6.378;2023-09-08T13:23:01;40.50;7.70
53776;DHT22;44276;49.534;6.378;2023-09-08T13:25:29;40.40;7.60
53776;DHT22;44276;49.534;6.378;2023-09-08T13:27:57;40.00;7.90
53776;DHT22;44276;49.534;6.378;2023-09-08T13:30:25;40.00;8.00
53776;DHT22;44276;49.534;6.378;2023-09-08T13:32:54;39.60;7.90
53776;DHT22;44276;49.534;6.378;2023-09-08T13:35:23;39.30;8.10
53776;DHT22;44276;49.534;6.378;2023-09-08T13:37:52;38.70;9.70
53776;DHT22;44276;49.534;6.378;2023-09-08T13:40:20;38.10;10.40
53776;DHT22;44276;49.534;6.378;2023-09-08T13:42:48;38.10;10.60
53776;DHT22;44276;49.534;6.378;2023-09-08T13:45:16;38.40;9.50
53776;DHT22;44276;49.534;6.378;2023-09-08T13:47:45;38.60;9.80
53776;DHT22;44276;49.534;6.378;2023-09-08T13:50:14;38.90;9.20
53776;DHT22;44276;49.534;6.378;2023-09-08T13:52:43;38.90;9.30
53776;DHT22;44276;49.534;6.378;2023-09-08T13:55:15;38.70;9.60
53776;DHT22;44276;49.534;6.378;2023-09-08T13:57:46;38.90;9.20
53776;DHT22;44276;49.534;6.378;2023-09-08T14:00:16;38.90;8.90
53776;DHT22;44276;49.534;6.378;2023-09-08T14:02:50;38.90;9.60
53776;DHT22;44276;49.534;6.378;2023-09-08T14:05:24;39.20;9.20
53776;DHT22;44276;49.534;6.378;2023-09-08T14:08:01;38.70;9.60
53776;DHT22;44276;49.534;6.378;2023-09-08T14:10:44;38.80;9.70
53776;DHT22;44276;49.534;6.378;2023-09-08T14:13:15;37.70;10.50
53776;DHT22;44276;49.534;6.378;2023-09-08T14:15:43;37.50;11.70
53776;DHT22;44276;49.534;6.378;2023-09-08T14:18:11;37.90;11.10
53776;DHT22;44276;49.534;6.378;2023-09-08T14:20:41;38.50;11.20
53776;DHT22;44276;49.534;6.378;2023-09-08T14:23:09;38.60;10.60
53776;DHT22;44276;49.534;6.378;2023-09-08T14:25:38;38.50;10.60
53776;DHT22;44276;49.534;6.378;2023-09-08T14:28:07;38.00;11.00
53776;DHT22;44276;49.534;6.378;2023-09-08T14:30:35;37.10;12.10
53776;DHT22;44276;49.534;6.378;2023-09-08T14:33:04;36.90;12.20
53776;DHT22;44276;49.534;6.378;2023-09-08T14:35:33;37.10;12.30
53776;DHT22;44276;49.534;6.378;2023-09-08T14:38:01;37.20;12.10
53776;DHT22;44276;49.534;6.378;2023-09-08T14:40:29;37.30;12.70
53776;DHT22;44276;49.534;6.378;2023-09-08T14:42:58;37.20;12.90
53776;DHT22;44276;49.534;6.378;2023-09-08T14:45:28;36.80;13.00
53776;DHT22;44276;49.534;6.378;2023-09-08T14:47:56;36.30;13.50
53776;DHT22;44276;49.534;6.378;2023-09-08T14:50:27;35.90;13.60
53776;DHT22;44276;49.534;6.378;2023-09-08T14:52:55;36.10;13.60
53776;DHT22;44276;49.534;6.378;2023-09-08T14:55:24;36.40;13.60
53776;DHT22;44276;49.534;6.378;2023-09-08T14:57:52;36.40;13.70
53776;DHT22;44276;49.534;6.378;2023-09-08T15:00:21;36.60;13.40
53776;DHT22;44276;49.534;6.378;2023-09-08T15:02:51;36.20;14.20
53776;DHT22;44276;49.534;6.378;2023-09-08T15:05:19;35.80;14.30
53776;DHT22;44276;49.534;6.378;2023-09-08T15:07:47;35.60;14.90
53776;DHT22;44276;49.534;6.378;2023-09-08T15:10:16;35.30;15.20
53776;DHT22;44276;49.534;6.378;2023-09-08T15:12:45;35.30;15.80
53776;DHT22;44276;49.534;6.378;2023-09-08T15:15:13;35.70;14.90
53776;DHT22;44276;49.534;6.378;2023-09-08T15:17:42;35.80;15.60
53776;DHT22;44276;49.534;6.378;2023-09-08T15:20:12;35.80;15.60
53776;DHT22;44276;49.534;6.378;2023-09-08T15:22:40;35.30;16.40
53776;DHT22;44276;49.534;6.378;2023-09-08T15:25:09;35.30;16.10
53776;DHT22;44276;49.534;6.378;2023-09-08T15:27:37;35.20;16.00
53776;DHT22;44276;49.534;6.378;2023-09-08T15:30:06;35.40;16.40
53776;DHT22;44276;49.534;6.378;2023-09-08T15:32:35;35.70;16.10
53776;DHT22;44276;49.534;6.378;2023-09-08T15:35:06;35.60;15.40
53776;DHT22;44276;49.534;6.378;2023-09-08T15:37:36;35.40;15.30
53776;DHT22;44276;49.534;6.378;2023-09-08T15:40:05;35.30;15.10
53776;DHT22;44276;49.534;6.378;2023-09-08T15:42:40;35.30;15.10
53776;DHT22;44276;49.534;6.378;2023-09-08T15:45:10;35.30;15.00
53776;DHT22;44276;49.534;6.378;2023-09-08T15:47:39;34.90;15.70
53776;DHT22;44276;49.534;6.378;2023-09-08T15:50:07;34.90;16.90
53776;DHT22;44276;49.534;6.378;2023-09-08T15:52:38;34.80;15.80